Aeroporto :
LOGIN :

Iscrizione | Disclaimer

   EN    FR    IT 

 










Sommario :    VFR   VFR Marginale   IFR   IFR Intensivo   IFR Molto Intensivo
Visibilità : 
Base nubi : 
>= 8 km
>= 3000ft
5 / 8 km
1000 / 3000 ft
1500m / 5 km
500 / 1000 ft
800 / 1500m
200 / 500 ft
< 800m
< 200 ft
Simboli :   Temporali  Nebbia  Neve Forte  Precipitazioni Forti  Vento > 20 kt
SIGMETs :   Varie  Temporali  Ghiacco  Turbolenza  Onda orograficha  Ceneri Vulcaniche






- Altitudine del aeroporto : 330 ft
- Codice IATA : LVA


LFOV - Laval-Entrammes

ULTIMO METAR :
  • 111900Z AUTO 09004KT 340V150 CAVOK 22/21 Q1012

METARs OBSOLETI :
  • 111830Z AUTO 34003KT 9999 ///TCU 22/20 Q1012
  • 111800Z AUTO 01007KT 9999 -RA ///TCU 22/20 Q1012
  • 111730Z AUTO 06006KT 9999 -RA ///CB 22/19 Q1013
  • 111700Z AUTO 00000KT 9999 TS ///CB 22/19 Q1013
  • 111630Z AUTO 27006KT 230V300 9999 -TSRA FEW031/// SCT054/// BKN068/// ///CB 22/18 Q1013

TAF N/A



MetMap, La meteo Aeronautica in un colpo d'occhio ! - Copyright ORBIFLY Dicembre 2007 - Disclaimer

ORBIFLY MET'MAP TEAM :

Programmazione e sviluppo : Alexandra Zaïnal
Concezione : Baudouin d'Aumeries
Aiuto per la programmazione : Marc-Olivier Méhu
Supporto tecnico e logistico : Manuel Goepfert
Aiuto per la traduzione : Arnaldo La Scala

Contatto : metmap@orbifly.com




FONTI E CREDITI :

   NOAA